sensor_id;sensor_type;location;lat;lon;timestamp;temperature;humidity
35591;DHT22;30355;50.556;10.012;2024-03-23T01:01:33;11.10;62.60
35591;DHT22;30355;50.556;10.012;2024-03-23T01:11:34;11.00;62.80
35591;DHT22;30355;50.556;10.012;2024-03-23T01:21:35;10.80;62.80
35591;DHT22;30355;50.556;10.012;2024-03-23T01:31:37;10.70;63.10
35591;DHT22;30355;50.556;10.012;2024-03-23T01:41:38;10.70;63.40
35591;DHT22;30355;50.556;10.012;2024-03-23T01:51:43;10.70;63.40
35591;DHT22;30355;50.556;10.012;2024-03-23T02:01:45;10.70;63.50
35591;DHT22;30355;50.556;10.012;2024-03-23T02:11:47;10.60;63.50
35591;DHT22;30355;50.556;10.012;2024-03-23T02:21:48;10.60;63.60
35591;DHT22;30355;50.556;10.012;2024-03-23T02:31:49;10.60;63.70
35591;DHT22;30355;50.556;10.012;2024-03-23T02:41:50;10.50;63.70
35591;DHT22;30355;50.556;10.012;2024-03-23T02:51:51;10.40;63.70
35591;DHT22;30355;50.556;10.012;2024-03-23T03:01:52;10.30;64.00
35591;DHT22;30355;50.556;10.012;2024-03-23T03:11:53;10.40;64.30
35591;DHT22;30355;50.556;10.012;2024-03-23T03:21:54;10.50;64.40
35591;DHT22;30355;50.556;10.012;2024-03-23T03:31:55;10.50;64.40
35591;DHT22;30355;50.556;10.012;2024-03-23T03:41:56;10.60;64.60
35591;DHT22;30355;50.556;10.012;2024-03-23T03:51:57;10.60;64.70
35591;DHT22;30355;50.556;10.012;2024-03-23T04:01:59;10.60;64.60
35591;DHT22;30355;50.556;10.012;2024-03-23T04:12:00;10.70;64.70
35591;DHT22;30355;50.556;10.012;2024-03-23T04:22:01;10.70;64.80
35591;DHT22;30355;50.556;10.012;2024-03-23T04:32:02;10.70;64.90
35591;DHT22;30355;50.556;10.012;2024-03-23T04:42:03;10.80;65.10
35591;DHT22;30355;50.556;10.012;2024-03-23T04:52:05;11.00;65.30
35591;DHT22;30355;50.556;10.012;2024-03-23T05:02:06;11.10;65.40
35591;DHT22;30355;50.556;10.012;2024-03-23T05:12:07;11.30;65.60
35591;DHT22;30355;50.556;10.012;2024-03-23T05:22:08;11.50;65.70
35591;DHT22;30355;50.556;10.012;2024-03-23T05:32:09;11.60;65.60
35591;DHT22;30355;50.556;10.012;2024-03-23T05:42:10;11.60;65.80
35591;DHT22;30355;50.556;10.012;2024-03-23T05:52:13;11.60;65.60
35591;DHT22;30355;50.556;10.012;2024-03-23T06:02:14;11.40;65.90
35591;DHT22;30355;50.556;10.012;2024-03-23T06:12:15;11.00;65.40
35591;DHT22;30355;50.556;10.012;2024-03-23T06:22:16;10.40;65.50
35591;DHT22;30355;50.556;10.012;2024-03-23T06:32:18;9.80;65.90
35591;DHT22;30355;50.556;10.012;2024-03-23T06:42:19;9.20;66.10
35591;DHT22;30355;50.556;10.012;2024-03-23T06:52:20;8.60;65.90
35591;DHT22;30355;50.556;10.012;2024-03-23T07:02:21;8.10;65.90
35591;DHT22;30355;50.556;10.012;2024-03-23T07:12:22;7.60;66.50
35591;DHT22;30355;50.556;10.012;2024-03-23T07:22:23;7.40;66.60
35591;DHT22;30355;50.556;10.012;2024-03-23T07:32:24;7.00;66.80
35591;DHT22;30355;50.556;10.012;2024-03-23T07:42:28;6.70;66.90
35591;DHT22;30355;50.556;10.012;2024-03-23T07:52:30;6.40;67.50
35591;DHT22;30355;50.556;10.012;2024-03-23T08:02:31;6.20;68.10
35591;DHT22;30355;50.556;10.012;2024-03-23T08:12:32;6.20;67.80
35591;DHT22;30355;50.556;10.012;2024-03-23T08:22:33;6.10;68.10
35591;DHT22;30355;50.556;10.012;2024-03-23T08:32:34;6.10;68.10
35591;DHT22;30355;50.556;10.012;2024-03-23T08:42:36;6.00;68.20
35591;DHT22;30355;50.556;10.012;2024-03-23T08:52:37;6.00;68.20
35591;DHT22;30355;50.556;10.012;2024-03-23T09:02:38;6.10;68.20
35591;DHT22;30355;50.556;10.012;2024-03-23T09:12:39;6.20;68.10
35591;DHT22;30355;50.556;10.012;2024-03-23T09:22:40;6.30;68.00
35591;DHT22;30355;50.556;10.012;2024-03-23T09:32:43;6.30;67.90
35591;DHT22;30355;50.556;10.012;2024-03-23T09:42:50;6.40;67.90
35591;DHT22;30355;50.556;10.012;2024-03-23T09:52:51;6.40;68.20
35591;DHT22;30355;50.556;10.012;2024-03-23T10:02:55;6.40;67.50
35591;DHT22;30355;50.556;10.012;2024-03-23T10:12:58;6.40;67.90
35591;DHT22;30355;50.556;10.012;2024-03-23T10:23:00;6.50;67.90
35591;DHT22;30355;50.556;10.012;2024-03-23T10:33:09;6.70;68.00
35591;DHT22;30355;50.556;10.012;2024-03-23T10:43:11;6.80;67.80
35591;DHT22;30355;50.556;10.012;2024-03-23T10:53:13;6.80;67.60
35591;DHT22;30355;50.556;10.012;2024-03-23T11:03:35;6.80;67.70
35591;DHT22;30355;50.556;10.012;2024-03-23T11:13:37;7.00;68.20
35591;DHT22;30355;50.556;10.012;2024-03-23T11:23:38;7.10;67.50
35591;DHT22;30355;50.556;10.012;2024-03-23T11:33:39;7.40;68.30
35591;DHT22;30355;50.556;10.012;2024-03-23T11:43:40;8.20;68.90
35591;DHT22;30355;50.556;10.012;2024-03-23T11:53:41;8.70;67.60
35591;DHT22;30355;50.556;10.012;2024-03-23T12:03:44;9.10;66.50
35591;DHT22;30355;50.556;10.012;2024-03-23T12:13:45;9.20;65.90
35591;DHT22;30355;50.556;10.012;2024-03-23T12:23:47;9.40;64.80
35591;DHT22;30355;50.556;10.012;2024-03-23T12:33:49;9.20;62.70
35591;DHT22;30355;50.556;10.012;2024-03-23T12:43:50;8.50;63.90
35591;DHT22;30355;50.556;10.012;2024-03-23T12:53:51;8.30;65.20
35591;DHT22;30355;50.556;10.012;2024-03-23T13:03:52;8.40;64.30
35591;DHT22;30355;50.556;10.012;2024-03-23T13:13:54;8.20;64.30
35591;DHT22;30355;50.556;10.012;2024-03-23T13:23:55;8.20;64.70
35591;DHT22;30355;50.556;10.012;2024-03-23T13:33:56;8.30;64.30
35591;DHT22;30355;50.556;10.012;2024-03-23T13:43:57;8.10;63.80
35591;DHT22;30355;50.556;10.012;2024-03-23T13:53:58;8.00;64.90
35591;DHT22;30355;50.556;10.012;2024-03-23T14:04:01;8.20;64.70
35591;DHT22;30355;50.556;10.012;2024-03-23T14:14:02;8.40;64.30
35591;DHT22;30355;50.556;10.012;2024-03-23T14:24:04;8.30;63.80
35591;DHT22;30355;50.556;10.012;2024-03-23T14:34:05;8.10;64.10
35591;DHT22;30355;50.556;10.012;2024-03-23T14:44:06;7.80;64.00
35591;DHT22;30355;50.556;10.012;2024-03-23T14:54:07;7.50;64.30
35591;DHT22;30355;50.556;10.012;2024-03-23T15:04:08;7.30;64.70
35591;DHT22;30355;50.556;10.012;2024-03-23T15:14:10;7.10;65.10
35591;DHT22;30355;50.556;10.012;2024-03-23T15:24:12;7.00;65.10
35591;DHT22;30355;50.556;10.012;2024-03-23T15:34:13;6.90;65.40
35591;DHT22;30355;50.556;10.012;2024-03-23T15:44:14;7.20;67.00
35591;DHT22;30355;50.556;10.012;2024-03-23T15:54:15;7.60;65.70
35591;DHT22;30355;50.556;10.012;2024-03-23T16:04:16;7.60;65.20
35591;DHT22;30355;50.556;10.012;2024-03-23T16:14:17;7.40;65.10
35591;DHT22;30355;50.556;10.012;2024-03-23T16:24:18;7.30;65.40
35591;DHT22;30355;50.556;10.012;2024-03-23T16:34:19;7.20;65.50
35591;DHT22;30355;50.556;10.012;2024-03-23T16:44:20;7.20;65.40
35591;DHT22;30355;50.556;10.012;2024-03-23T16:54:22;7.00;65.50
35591;DHT22;30355;50.556;10.012;2024-03-23T17:04:23;6.80;65.40
35591;DHT22;30355;50.556;10.012;2024-03-23T17:14:26;6.70;65.50
35591;DHT22;30355;50.556;10.012;2024-03-23T17:24:27;6.40;65.60
35591;DHT22;30355;50.556;10.012;2024-03-23T17:34:28;6.30;65.80
35591;DHT22;30355;50.556;10.012;2024-03-23T17:44:29;6.20;66.00
35591;DHT22;30355;50.556;10.012;2024-03-23T17:54:30;6.10;66.00
35591;DHT22;30355;50.556;10.012;2024-03-23T18:04:32;6.00;66.20
35591;DHT22;30355;50.556;10.012;2024-03-23T18:14:33;6.00;66.30
35591;DHT22;30355;50.556;10.012;2024-03-23T18:24:35;6.10;66.40
35591;DHT22;30355;50.556;10.012;2024-03-23T18:34:36;6.10;66.50
35591;DHT22;30355;50.556;10.012;2024-03-23T18:44:38;6.10;66.40
35591;DHT22;30355;50.556;10.012;2024-03-23T18:54:39;5.90;65.90
35591;DHT22;30355;50.556;10.012;2024-03-23T19:04:40;5.70;66.30
35591;DHT22;30355;50.556;10.012;2024-03-23T19:14:41;5.60;66.70
35591;DHT22;30355;50.556;10.012;2024-03-23T19:24:42;5.60;66.70
35591;DHT22;30355;50.556;10.012;2024-03-23T19:34:43;5.60;66.70
35591;DHT22;30355;50.556;10.012;2024-03-23T19:44:44;5.60;66.80
35591;DHT22;30355;50.556;10.012;2024-03-23T19:54:45;5.50;66.80
35591;DHT22;30355;50.556;10.012;2024-03-23T20:04:47;5.50;66.90
35591;DHT22;30355;50.556;10.012;2024-03-23T20:14:48;5.60;66.90
35591;DHT22;30355;50.556;10.012;2024-03-23T20:24:49;5.60;66.80
35591;DHT22;30355;50.556;10.012;2024-03-23T20:34:51;5.50;66.60
35591;DHT22;30355;50.556;10.012;2024-03-23T20:44:52;5.50;66.70
35591;DHT22;30355;50.556;10.012;2024-03-23T20:54:54;5.50;66.70
35591;DHT22;30355;50.556;10.012;2024-03-23T21:04:55;5.50;66.70
35591;DHT22;30355;50.556;10.012;2024-03-23T21:14:56;5.40;66.60
35591;DHT22;30355;50.556;10.012;2024-03-23T21:24:58;5.40;66.70
35591;DHT22;30355;50.556;10.012;2024-03-23T21:34:59;5.40;67.00
35591;DHT22;30355;50.556;10.012;2024-03-23T21:45:00;5.20;66.60
35591;DHT22;30355;50.556;10.012;2024-03-23T21:55:01;5.10;66.80
35591;DHT22;30355;50.556;10.012;2024-03-23T22:05:03;5.10;67.00
35591;DHT22;30355;50.556;10.012;2024-03-23T22:15:04;5.00;67.10
35591;DHT22;30355;50.556;10.012;2024-03-23T22:25:06;5.00;67.20
35591;DHT22;30355;50.556;10.012;2024-03-23T22:35:08;5.00;67.30
35591;DHT22;30355;50.556;10.012;2024-03-23T22:45:09;4.90;67.50
35591;DHT22;30355;50.556;10.012;2024-03-23T22:55:10;4.90;67.80
35591;DHT22;30355;50.556;10.012;2024-03-23T23:05:12;4.80;67.80
35591;DHT22;30355;50.556;10.012;2024-03-23T23:15:13;4.80;68.20
35591;DHT22;30355;50.556;10.012;2024-03-23T23:25:14;4.80;68.20
35591;DHT22;30355;50.556;10.012;2024-03-23T23:35:15;4.80;68.20
35591;DHT22;30355;50.556;10.012;2024-03-23T23:45:16;4.80;68.30
35591;DHT22;30355;50.556;10.012;2024-03-23T23:55:17;4.80;68.20
